Time;durP1;ratioP1;P1;durP2;ratioP2;P2;SDS_P1;SDS_P2;PMS_P1;PMS_P2;Temp;Humidity;BMP_temperature;BMP_pressure;BME280_temperature;BME280_humidity;BME280_pressure;Samples;Min_cycle;Max_cycle;Signal;HPM_P1;HPM_P2
2022/08/29 00:00:35;;;;;;;12.68;6.65;;;;;;;;;;4391493;32;20527;-90
2022/08/29 00:03:04;;;;;;;10.60;6.75;;;;;;;;;;4390954;32;20647;-90
2022/08/29 00:05:35;;;;;;;17.62;6.80;;;;;;;;;;4391672;32;20314;-92
2022/08/29 00:08:04;;;;;;;10.65;6.55;;;;;;;;;;4392052;32;20745;-92
2022/08/29 00:10:35;;;;;;;16.48;7.32;;;;;;;;;;4392182;32;20269;-93
2022/08/29 00:13:03;;;;;;;15.15;6.82;;;;;;;;;;4392209;32;20292;-93
2022/08/29 00:15:31;;;;;;;14.63;7.87;;;;;;;;;;4392135;32;20493;-93
2022/08/29 00:17:58;;;;;;;12.32;7.00;;;;;;;;;;4391470;32;20229;-92
2022/08/29 00:20:30;;;;;;;18.08;6.53;;;;;;;;;;4392623;32;20202;-92
2022/08/29 00:22:57;;;;;;;9.50;6.07;;;;;;;;;;4392537;32;20222;-92
2022/08/29 00:25:26;;;;;;;11.90;6.15;;;;;;;;;;4392920;32;20523;-92
2022/08/29 00:27:55;;;;;;;12.40;6.93;;;;;;;;;;4403063;32;20210;-91
2022/08/29 00:30:30;;;;;;;11.95;7.10;;;;;;;;;;4595371;27;20237;-96
2022/08/29 00:35:41;;;;;;;10.35;6.18;;;;;;;;;;4388927;32;20277;-93
2022/08/29 00:38:11;;;;;;;8.75;6.15;;;;;;;;;;4402640;32;20554;-93
2022/08/29 00:40:46;;;;;;;18.35;6.80;;;;;;;;;;4401547;32;20264;-88
2022/08/29 00:43:20;;;;;;;12.10;5.95;;;;;;;;;;4381938;32;20328;-87
2022/08/29 00:45:54;;;;;;;13.60;6.12;;;;;;;;;;4393134;32;20260;-90
2022/08/29 00:48:23;;;;;;;17.23;6.22;;;;;;;;;;4394586;32;20585;-91
2022/08/29 00:50:56;;;;;;;11.60;7.32;;;;;;;;;;4394292;32;20280;-92
2022/08/29 00:53:30;;;;;;;15.13;7.28;;;;;;;;;;4394315;32;20540;-92
2022/08/29 00:55:59;;;;;;;11.57;6.85;;;;;;;;;;4394587;32;20228;-91
2022/08/29 00:58:32;;;;;;;12.40;7.35;;;;;;;;;;4393872;32;20272;-91
2022/08/29 01:01:00;;;;;;;13.48;7.00;;;;;;;;;;4393970;32;20210;-91
2022/08/29 01:03:31;;;;;;;12.05;8.10;;;;;;;;;;4393396;32;20202;-92
2022/08/29 01:05:59;;;;;;;17.15;9.82;;;;;;;;;;4394162;32;20635;-92
2022/08/29 01:08:27;;;;;;;14.55;7.53;;;;;;;;;;4394461;32;20237;-92
2022/08/29 01:13:45;;;;;;;13.90;7.62;;;;;;;;;;4393964;32;20205;-90
2022/08/29 01:16:14;;;;;;;14.27;7.30;;;;;;;;;;4394213;32;20253;-92
2022/08/29 01:18:45;;;;;;;23.08;6.97;;;;;;;;;;4394060;32;20729;-92
2022/08/29 01:21:18;;;;;;;17.90;6.20;;;;;;;;;;4394436;32;20567;-92
2022/08/29 01:23:51;;;;;;;11.38;6.50;;;;;;;;;;4394012;32;20638;-91
2022/08/29 01:26:22;;;;;;;14.52;6.20;;;;;;;;;;4393747;32;20216;-94
2022/08/29 01:28:51;;;;;;;18.90;8.05;;;;;;;;;;4393605;32;20696;-92
2022/08/29 01:31:22;;;;;;;10.68;6.87;;;;;;;;;;4393266;32;20552;-93
2022/08/29 01:33:53;;;;;;;16.05;6.43;;;;;;;;;;4393625;32;20579;-93
2022/08/29 01:36:24;;;;;;;14.48;6.12;;;;;;;;;;4393429;32;20571;-93
2022/08/29 01:38:53;;;;;;;13.70;7.07;;;;;;;;;;4393678;32;20655;-92
2022/08/29 01:41:22;;;;;;;12.23;6.87;;;;;;;;;;4393650;32;20555;-93
2022/08/29 01:43:53;;;;;;;23.58;6.72;;;;;;;;;;4393347;32;20543;-92
2022/08/29 01:46:26;;;;;;;17.15;6.40;;;;;;;;;;4393876;32;20548;-92
2022/08/29 01:48:54;;;;;;;19.17;6.50;;;;;;;;;;4393904;32;20252;-92
2022/08/29 01:51:23;;;;;;;11.27;6.50;;;;;;;;;;4394209;32;20508;-92
2022/08/29 01:53:51;;;;;;;20.27;6.78;;;;;;;;;;4393339;32;20233;-92
2022/08/29 01:56:23;;;;;;;13.43;7.62;;;;;;;;;;4393416;32;20288;-93
2022/08/29 01:58:53;;;;;;;9.88;6.10;;;;;;;;;;4392808;32;20631;-92
2022/08/29 02:01:23;;;;;;;16.12;6.95;;;;;;;;;;4392268;32;20512;-92
2022/08/29 02:03:51;;;;;;;12.95;7.47;;;;;;;;;;4393059;32;20619;-92
2022/08/29 02:06:18;;;;;;;14.07;7.65;;;;;;;;;;4393249;32;20570;-92
2022/08/29 02:08:47;;;;;;;12.50;7.10;;;;;;;;;;4391666;32;20720;-92
2022/08/29 02:11:16;;;;;;;10.07;7.53;;;;;;;;;;4391188;32;20520;-92
2022/08/29 02:13:48;;;;;;;16.95;7.28;;;;;;;;;;4390911;32;20639;-92
2022/08/29 02:16:16;;;;;;;15.43;7.28;;;;;;;;;;4391364;32;20579;-92
2022/08/29 02:18:44;;;;;;;12.25;6.70;;;;;;;;;;4394474;32;20653;-92
2022/08/29 02:21:15;;;;;;;6.72;5.97;;;;;;;;;;4394731;32;20325;-92
2022/08/29 02:23:43;;;;;;;17.23;6.47;;;;;;;;;;4394799;32;20629;-93
2022/08/29 02:26:11;;;;;;;16.55;7.30;;;;;;;;;;4394628;32;20553;-92
2022/08/29 02:28:40;;;;;;;13.40;6.72;;;;;;;;;;4393999;32;20621;-92
2022/08/29 02:31:09;;;;;;;12.63;6.53;;;;;;;;;;4394213;32;20494;-92
2022/08/29 02:33:38;;;;;;;12.37;6.18;;;;;;;;;;4390431;32;20555;-92
2022/08/29 02:36:07;;;;;;;13.68;7.50;;;;;;;;;;4390216;32;20534;-92
2022/08/29 02:38:35;;;;;;;18.70;6.65;;;;;;;;;;4390286;32;20652;-92
2022/08/29 02:41:03;;;;;;;18.80;6.35;;;;;;;;;;4389836;32;20698;-93
2022/08/29 02:43:31;;;;;;;14.48;6.78;;;;;;;;;;4389628;32;20548;-93
2022/08/29 02:45:59;;;;;;;15.07;6.30;;;;;;;;;;4390269;32;20566;-92
2022/08/29 02:48:29;;;;;;;22.20;7.32;;;;;;;;;;4390462;32;20618;-92
2022/08/29 02:50:58;;;;;;;7.57;6.20;;;;;;;;;;4390037;32;20297;-93
2022/08/29 02:53:28;;;;;;;14.27;6.97;;;;;;;;;;4390407;32;20618;-93
2022/08/29 02:55:56;;;;;;;17.92;6.75;;;;;;;;;;4389840;32;20610;-93
2022/08/29 02:58:24;;;;;;;14.95;6.37;;;;;;;;;;4390304;32;20653;-92
2022/08/29 03:00:52;;;;;;;11.23;6.95;;;;;;;;;;4390164;32;20501;-93
2022/08/29 03:03:20;;;;;;;11.40;7.18;;;;;;;;;;4392215;32;20609;-92
2022/08/29 03:05:50;;;;;;;11.38;6.90;;;;;;;;;;4392428;32;20317;-92
2022/08/29 03:08:17;;;;;;;15.40;7.45;;;;;;;;;;4392626;32;20543;-92
2022/08/29 03:10:45;;;;;;;16.62;8.00;;;;;;;;;;4391587;32;20642;-93
2022/08/29 03:13:13;;;;;;;10.68;6.87;;;;;;;;;;4391919;32;20559;-93
2022/08/29 03:15:41;;;;;;;11.00;8.07;;;;;;;;;;4392072;32;20226;-92
2022/08/29 03:18:09;;;;;;;14.38;7.10;;;;;;;;;;4391849;32;20202;-93
2022/08/29 03:20:38;;;;;;;12.35;8.75;;;;;;;;;;4391955;32;20634;-93
2022/08/29 03:23:08;;;;;;;19.95;8.48;;;;;;;;;;4392277;32;20619;-92
2022/08/29 03:25:36;;;;;;;13.00;8.10;;;;;;;;;;4392113;32;20567;-92
2022/08/29 03:28:04;;;;;;;13.80;6.78;;;;;;;;;;4391229;32;20741;-92
2022/08/29 03:30:32;;;;;;;15.35;7.40;;;;;;;;;;4391259;32;20578;-92
2022/08/29 03:33:01;;;;;;;12.82;7.68;;;;;;;;;;4391438;32;20550;-92
2022/08/29 03:35:28;;;;;;;14.25;7.78;;;;;;;;;;4391910;32;20331;-93
2022/08/29 03:37:56;;;;;;;15.75;8.15;;;;;;;;;;4385651;32;20568;-92
2022/08/29 03:40:26;;;;;;;19.00;9.05;;;;;;;;;;4391842;32;20657;-92
2022/08/29 03:42:55;;;;;;;16.70;11.10;;;;;;;;;;4391953;32;20667;-93
2022/08/29 03:45:24;;;;;;;21.70;11.88;;;;;;;;;;4391654;32;20288;-92
2022/08/29 03:47:52;;;;;;;20.75;9.90;;;;;;;;;;4392169;32;20201;-92
2022/08/29 03:50:23;;;;;;;14.87;9.82;;;;;;;;;;4392068;32;20265;-93
2022/08/29 03:52:50;;;;;;;16.70;10.07;;;;;;;;;;4390872;32;20249;-89
2022/08/29 03:55:19;;;;;;;15.43;9.90;;;;;;;;;;4390774;32;20615;-87
2022/08/29 03:57:48;;;;;;;12.75;9.52;;;;;;;;;;4391305;32;20604;-91
2022/08/29 04:00:19;;;;;;;16.00;9.48;;;;;;;;;;4391010;32;20608;-91
2022/08/29 04:02:49;;;;;;;16.02;10.68;;;;;;;;;;4392141;32;20569;-92
2022/08/29 04:05:17;;;;;;;22.40;12.63;;;;;;;;;;4391365;32;20645;-92
2022/08/29 04:07:48;;;;;;;24.15;10.73;;;;;;;;;;4391691;32;20547;-92
2022/08/29 04:10:20;;;;;;;20.35;11.57;;;;;;;;;;4392372;32;20614;-91
2022/08/29 04:12:49;;;;;;;17.87;11.25;;;;;;;;;;4390641;32;20314;-91
2022/08/29 04:15:17;;;;;;;11.38;7.87;;;;;;;;;;4390677;32;20541;-91
2022/08/29 04:17:45;;;;;;;17.95;9.07;;;;;;;;;;4391323;32;20516;-91
2022/08/29 04:20:14;;;;;;;14.77;7.43;;;;;;;;;;4390759;32;20248;-91
2022/08/29 04:22:43;;;;;;;19.25;8.82;;;;;;;;;;4390556;32;20594;-91
2022/08/29 04:25:13;;;;;;;12.25;7.05;;;;;;;;;;4390420;32;20521;-92
2022/08/29 04:27:42;;;;;;;13.20;7.97;;;;;;;;;;4391363;32;20587;-92
2022/08/29 04:30:16;;;;;;;18.17;6.85;;;;;;;;;;4390982;32;20566;-92
2022/08/29 04:32:43;;;;;;;18.37;7.78;;;;;;;;;;4391215;32;20220;-91
2022/08/29 04:35:12;;;;;;;17.67;8.45;;;;;;;;;;4391232;32;20543;-91
2022/08/29 04:37:41;;;;;;;18.67;7.72;;;;;;;;;;4391256;32;20532;-92
2022/08/29 04:40:10;;;;;;;17.75;7.82;;;;;;;;;;4391547;32;20667;-92
2022/08/29 04:42:38;;;;;;;18.35;8.68;;;;;;;;;;4391551;32;20221;-92
2022/08/29 04:45:11;;;;;;;16.73;8.82;;;;;;;;;;4391289;32;20725;-92
2022/08/29 04:47:41;;;;;;;15.13;8.23;;;;;;;;;;4391734;32;20555;-93
2022/08/29 04:50:11;;;;;;;12.45;7.53;;;;;;;;;;4390965;32;20277;-93
2022/08/29 04:52:39;;;;;;;18.37;8.27;;;;;;;;;;4391553;32;20611;-95
2022/08/29 04:55:08;;;;;;;20.65;9.48;;;;;;;;;;4391052;32;20267;-92
2022/08/29 04:57:37;;;;;;;27.13;8.82;;;;;;;;;;4391809;32;20562;-92
2022/08/29 05:00:06;;;;;;;13.48;7.80;;;;;;;;;;4392276;32;20650;-91
2022/08/29 05:02:34;;;;;;;16.92;8.20;;;;;;;;;;4392512;32;20682;-91
2022/08/29 05:05:04;;;;;;;25.33;8.60;;;;;;;;;;4378384;32;20226;-91
2022/08/29 05:07:33;;;;;;;16.52;7.78;;;;;;;;;;4392446;32;20623;-91
2022/08/29 05:15:08;;;;;;;24.58;8.38;;;;;;;;;;4364419;33;20214;-84
2022/08/29 05:17:36;;;;;;;25.83;8.25;;;;;;;;;;4372134;33;20163;-83
2022/08/29 05:20:06;;;;;;;25.92;8.07;;;;;;;;;;4373487;32;20234;-86
2022/08/29 05:22:34;;;;;;;19.90;9.30;;;;;;;;;;4371334;32;20292;-83
2022/08/29 05:25:03;;;;;;;17.55;7.65;;;;;;;;;;4367419;32;20214;-88
2022/08/29 05:27:31;;;;;;;14.98;9.07;;;;;;;;;;4363986;32;20525;-85
2022/08/29 05:30:00;;;;;;;18.87;9.48;;;;;;;;;;4362550;32;20717;-85
2022/08/29 05:32:28;;;;;;;16.92;8.10;;;;;;;;;;4362731;32;20573;-84
2022/08/29 05:34:56;;;;;;;16.30;8.43;;;;;;;;;;4362983;32;20653;-84
2022/08/29 05:37:25;;;;;;;18.35;8.98;;;;;;;;;;4362174;32;20478;-84
2022/08/29 05:39:53;;;;;;;17.52;8.18;;;;;;;;;;4362678;32;20575;-85
2022/08/29 05:42:22;;;;;;;44.10;12.00;;;;;;;;;;4361584;32;20202;-83
2022/08/29 05:44:50;;;;;;;24.70;10.63;;;;;;;;;;4363466;32;20647;-84
2022/08/29 05:47:20;;;;;;;18.60;8.55;;;;;;;;;;4365257;32;20510;-83
2022/08/29 05:49:48;;;;;;;26.50;9.55;;;;;;;;;;4363782;32;20245;-85
2022/08/29 05:52:19;;;;;;;16.27;9.25;;;;;;;;;;4364751;32;20242;-86
2022/08/29 05:54:48;;;;;;;20.98;8.65;;;;;;;;;;4363921;32;20219;-83
2022/08/29 05:57:20;;;;;;;25.75;9.15;;;;;;;;;;4366257;32;20556;-88
2022/08/29 05:59:49;;;;;;;30.67;9.98;;;;;;;;;;4376250;32;20234;-87
2022/08/29 06:02:18;;;;;;;24.00;10.07;;;;;;;;;;4381830;32;20650;-88
2022/08/29 06:04:46;;;;;;;19.80;9.85;;;;;;;;;;4380621;32;20591;-88
2022/08/29 06:07:14;;;;;;;17.70;8.90;;;;;;;;;;4376671;32;20563;-88
2022/08/29 06:09:42;;;;;;;14.23;8.80;;;;;;;;;;4377289;32;20655;-88
2022/08/29 06:12:13;;;;;;;21.67;9.55;;;;;;;;;;4376771;32;20641;-88
2022/08/29 06:14:46;;;;;;;22.13;9.32;;;;;;;;;;4376285;32;20368;-87
2022/08/29 06:17:14;;;;;;;20.00;9.30;;;;;;;;;;4363342;32;20242;-88
2022/08/29 06:19:42;;;;;;;18.73;9.32;;;;;;;;;;4375672;32;20639;-88
2022/08/29 06:22:11;;;;;;;24.20;9.63;;;;;;;;;;4376345;32;20289;-88
2022/08/29 06:24:39;;;;;;;13.77;8.63;;;;;;;;;;4376309;32;20587;-88
2022/08/29 06:27:08;;;;;;;26.08;8.93;;;;;;;;;;4376961;32;20221;-88
2022/08/29 06:29:38;;;;;;;28.83;10.25;;;;;;;;;;4376011;32;20310;-89
2022/08/29 06:32:06;;;;;;;14.70;10.23;;;;;;;;;;4376706;32;20555;-88
2022/08/29 06:34:34;;;;;;;37.40;12.10;;;;;;;;;;4362189;32;20659;-88
2022/08/29 06:37:02;;;;;;;15.98;9.05;;;;;;;;;;4375998;32;20225;-88
2022/08/29 06:39:29;;;;;;;25.88;9.80;;;;;;;;;;4375740;32;20598;-88
2022/08/29 06:41:57;;;;;;;14.57;8.43;;;;;;;;;;4376102;32;20596;-88
2022/08/29 06:44:25;;;;;;;28.27;10.10;;;;;;;;;;4376079;32;20264;-88
2022/08/29 06:46:54;;;;;;;16.98;9.18;;;;;;;;;;4375788;32;20537;-89
2022/08/29 06:49:22;;;;;;;21.12;9.95;;;;;;;;;;4376347;32;20245;-89
2022/08/29 06:51:52;;;;;;;21.73;11.68;;;;;;;;;;4376861;32;20597;-88
2022/08/29 06:54:21;;;;;;;23.23;11.23;;;;;;;;;;4375422;32;20647;-88
2022/08/29 06:56:49;;;;;;;28.65;11.43;;;;;;;;;;4375789;32;20323;-88
2022/08/29 06:59:17;;;;;;;22.58;10.15;;;;;;;;;;4375570;32;20666;-88
2022/08/29 07:01:45;;;;;;;24.67;12.00;;;;;;;;;;4374936;32;20581;-84
2022/08/29 07:04:15;;;;;;;17.90;11.55;;;;;;;;;;4375101;32;20547;-86
2022/08/29 07:06:44;;;;;;;25.12;13.52;;;;;;;;;;4375272;32;20270;-82
2022/08/29 07:09:13;;;;;;;26.25;10.82;;;;;;;;;;4375775;32;20639;-84
2022/08/29 07:11:42;;;;;;;21.85;12.23;;;;;;;;;;4376695;32;20620;-86
2022/08/29 07:14:10;;;;;;;32.50;11.98;;;;;;;;;;4375269;32;20651;-85
2022/08/29 07:16:37;;;;;;;21.45;9.73;;;;;;;;;;4375650;32;20577;-86
2022/08/29 07:19:06;;;;;;;21.25;9.52;;;;;;;;;;4375127;32;20285;-86
2022/08/29 07:21:35;;;;;;;20.65;9.73;;;;;;;;;;4375419;32;20634;-83
2022/08/29 07:24:04;;;;;;;25.50;10.90;;;;;;;;;;4375559;32;20248;-85
2022/08/29 07:26:37;;;;;;;25.83;10.35;;;;;;;;;;4375534;32;20510;-86
2022/08/29 07:29:08;;;;;;;17.62;9.65;;;;;;;;;;4375057;32;20536;-85
2022/08/29 07:31:37;;;;;;;20.15;10.93;;;;;;;;;;4375597;32;20563;-83
2022/08/29 07:34:05;;;;;;;21.05;9.40;;;;;;;;;;4375151;32;20275;-83
2022/08/29 07:36:33;;;;;;;18.30;9.68;;;;;;;;;;4374926;32;20624;-86
2022/08/29 07:39:05;;;;;;;20.15;9.48;;;;;;;;;;4374962;32;20660;-84
2022/08/29 07:41:33;;;;;;;22.90;10.45;;;;;;;;;;4375519;32;20236;-85
2022/08/29 07:44:01;;;;;;;19.58;9.65;;;;;;;;;;4375095;32;20626;-85
2022/08/29 07:46:30;;;;;;;20.73;9.05;;;;;;;;;;4375821;32;20616;-86
2022/08/29 07:48:58;;;;;;;22.95;9.88;;;;;;;;;;4375024;32;20623;-86
2022/08/29 07:51:27;;;;;;;17.92;9.00;;;;;;;;;;4374454;32;20210;-86
2022/08/29 07:53:55;;;;;;;28.27;8.48;;;;;;;;;;4374905;32;20233;-86
2022/08/29 07:56:26;;;;;;;15.30;7.32;;;;;;;;;;4374948;32;20345;-86
2022/08/29 07:58:55;;;;;;;16.20;7.72;;;;;;;;;;4374566;32;20587;-86
2022/08/29 08:01:23;;;;;;;14.38;7.62;;;;;;;;;;4374304;32;20198;-85
2022/08/29 08:03:52;;;;;;;15.23;7.47;;;;;;;;;;4374813;32;20723;-84
2022/08/29 08:06:21;;;;;;;28.27;9.68;;;;;;;;;;4374763;32;20302;-84
2022/08/29 08:08:49;;;;;;;13.52;8.65;;;;;;;;;;4374811;32;20652;-87
2022/08/29 08:11:17;;;;;;;15.05;8.88;;;;;;;;;;4375390;32;20585;-85
2022/08/29 08:13:46;;;;;;;12.35;7.60;;;;;;;;;;4374032;32;20643;-85
2022/08/29 08:16:16;;;;;;;21.92;8.55;;;;;;;;;;4374426;32;20550;-83
2022/08/29 08:18:45;;;;;;;13.13;8.65;;;;;;;;;;4373896;32;20348;-84
2022/08/29 08:21:13;;;;;;;17.62;9.05;;;;;;;;;;4373784;32;20516;-83
2022/08/29 08:23:41;;;;;;;16.58;8.40;;;;;;;;;;4373691;32;20620;-84
2022/08/29 08:26:10;;;;;;;24.02;10.68;;;;;;;;;;4374488;32;20596;-86
2022/08/29 08:28:39;;;;;;;15.35;7.50;;;;;;;;;;4374829;32;20610;-83
2022/08/29 08:31:09;;;;;;;15.20;7.95;;;;;;;;;;4374548;32;20236;-83
2022/08/29 08:33:38;;;;;;;16.48;8.45;;;;;;;;;;4374197;32;20225;-83
2022/08/29 08:36:13;;;;;;;13.90;6.95;;;;;;;;;;4374105;32;20510;-86
2022/08/29 08:38:41;;;;;;;18.37;7.53;;;;;;;;;;4374575;32;20675;-86
2022/08/29 08:41:18;;;;;;;13.70;6.62;;;;;;;;;;4374992;32;20633;-86
2022/08/29 08:43:52;;;;;;;13.00;7.30;;;;;;;;;;4375368;32;20225;-87
2022/08/29 08:46:29;;;;;;;14.60;7.32;;;;;;;;;;4374928;32;20583;-87
2022/08/29 08:49:00;;;;;;;23.23;6.62;;;;;;;;;;4375558;32;20352;-87
2022/08/29 08:51:32;;;;;;;12.00;6.25;;;;;;;;;;4374691;32;20547;-87
2022/08/29 08:54:02;;;;;;;10.35;6.53;;;;;;;;;;4376636;32;20635;-87
2022/08/29 08:56:35;;;;;;;15.18;6.75;;;;;;;;;;4377702;32;20606;-86
2022/08/29 08:59:08;;;;;;;13.07;6.43;;;;;;;;;;4378054;32;20614;-87
2022/08/29 09:01:42;;;;;;;12.88;6.85;;;;;;;;;;4377817;32;20539;-87
2022/08/29 09:04:27;;;;;;;15.85;7.78;;;;;;;;;;4378445;32;20352;-86
2022/08/29 09:07:16;;;;;;;19.42;7.10;;;;;;;;;;4380258;32;20612;-88
2022/08/29 09:10:01;;;;;;;16.70;7.03;;;;;;;;;;4378710;32;20352;-86
2022/08/29 09:12:41;;;;;;;19.83;7.00;;;;;;;;;;4377312;32;20222;-88
2022/08/29 09:15:16;;;;;;;14.18;6.50;;;;;;;;;;4366200;32;20539;-86
2022/08/29 09:17:52;;;;;;;11.73;7.18;;;;;;;;;;4364253;32;20612;-86
2022/08/29 09:20:23;;;;;;;16.45;7.10;;;;;;;;;;4362933;32;20638;-86
2022/08/29 09:22:59;;;;;;;21.40;8.27;;;;;;;;;;4362259;32;20679;-85
2022/08/29 09:25:27;;;;;;;20.33;6.65;;;;;;;;;;4361290;32;20257;-85
2022/08/29 09:27:57;;;;;;;10.35;6.55;;;;;;;;;;4361645;32;20223;-86
2022/08/29 09:30:27;;;;;;;18.10;7.25;;;;;;;;;;4361704;32;20207;-87
2022/08/29 09:32:59;;;;;;;28.95;8.52;;;;;;;;;;4362209;32;20263;-83
2022/08/29 09:35:30;;;;;;;17.33;7.15;;;;;;;;;;4361635;32;20659;-85
2022/08/29 09:38:03;;;;;;;17.98;7.60;;;;;;;;;;4363215;32;20518;-84
2022/08/29 09:40:53;;;;;;;19.42;7.72;;;;;;;;;;4360963;32;20652;-85
2022/08/29 09:43:26;;;;;;;18.02;6.97;;;;;;;;;;4360810;32;20509;-85
2022/08/29 09:46:19;;;;;;;16.35;6.70;;;;;;;;;;4360807;32;20623;-85
2022/08/29 09:48:51;;;;;;;24.05;7.62;;;;;;;;;;4361217;32;20553;-85
2022/08/29 09:51:27;;;;;;;9.65;6.37;;;;;;;;;;4360856;32;20579;-85
2022/08/29 09:54:11;;;;;;;21.00;6.97;;;;;;;;;;4372030;32;20222;-85
2022/08/29 09:56:40;;;;;;;15.18;6.65;;;;;;;;;;4370022;32;20343;-85
2022/08/29 09:59:16;;;;;;;28.90;7.95;;;;;;;;;;4372171;32;20219;-83
2022/08/29 10:01:44;;;;;;;10.70;6.47;;;;;;;;;;4374689;32;20197;-84
2022/08/29 10:04:13;;;;;;;15.38;7.68;;;;;;;;;;4369666;32;20545;-85
2022/08/29 10:06:43;;;;;;;18.25;7.18;;;;;;;;;;4362625;32;20607;-84
2022/08/29 10:09:24;;;;;;;16.25;6.53;;;;;;;;;;4363158;32;20686;-86
2022/08/29 10:14:46;;;;;;;18.67;7.43;;;;;;;;;;4382095;32;20246;-86
2022/08/29 10:20:08;;;;;;;35.72;7.37;;;;;;;;;;4375788;32;20273;-84
2022/08/29 10:22:42;;;;;;;12.48;7.00;;;;;;;;;;4375769;32;20594;-84
2022/08/29 10:25:16;;;;;;;18.80;7.07;;;;;;;;;;4375636;32;20570;-85
2022/08/29 10:27:50;;;;;;;14.18;7.00;;;;;;;;;;4375527;32;20543;-84
2022/08/29 10:30:21;;;;;;;19.00;8.20;;;;;;;;;;4375175;32;20560;-84
2022/08/29 10:33:09;;;;;;;12.40;7.05;;;;;;;;;;4375357;32;20708;-84
2022/08/29 10:35:42;;;;;;;19.75;6.62;;;;;;;;;;4375459;32;20668;-83
2022/08/29 10:38:18;;;;;;;12.90;7.43;;;;;;;;;;4375380;32;20261;-84
2022/08/29 10:40:49;;;;;;;20.27;7.37;;;;;;;;;;4375017;32;20579;-84
2022/08/29 10:43:33;;;;;;;21.33;7.32;;;;;;;;;;4377169;32;20548;-84
2022/08/29 10:46:15;;;;;;;16.25;5.97;;;;;;;;;;4377264;32;20269;-83
2022/08/29 10:48:50;;;;;;;10.43;6.78;;;;;;;;;;4376774;32;20720;-85
2022/08/29 10:51:26;;;;;;;19.65;7.50;;;;;;;;;;4376810;32;20229;-84
2022/08/29 10:54:02;;;;;;;15.23;7.00;;;;;;;;;;4376577;32;20637;-85
2022/08/29 10:56:37;;;;;;;15.57;7.47;;;;;;;;;;4376429;32;20586;-85
2022/08/29 10:59:12;;;;;;;15.57;7.70;;;;;;;;;;4377686;32;20724;-84
2022/08/29 11:01:46;;;;;;;10.73;7.00;;;;;;;;;;4378708;32;20582;-84
2022/08/29 11:04:18;;;;;;;18.45;7.12;;;;;;;;;;4378798;32;20673;-84
2022/08/29 11:06:55;;;;;;;20.77;7.15;;;;;;;;;;4378576;32;20221;-85
2022/08/29 11:09:27;;;;;;;21.85;7.30;;;;;;;;;;4379143;32;20626;-85
2022/08/29 11:12:05;;;;;;;15.07;7.25;;;;;;;;;;4377906;32;20662;-85
2022/08/29 11:14:39;;;;;;;24.58;6.60;;;;;;;;;;4376607;32;20742;-87
2022/08/29 11:17:10;;;;;;;16.12;6.05;;;;;;;;;;4375288;32;20590;-84
2022/08/29 11:19:48;;;;;;;22.67;6.40;;;;;;;;;;4376125;32;20202;-84
2022/08/29 11:22:22;;;;;;;18.33;8.18;;;;;;;;;;4378952;32;20537;-85
2022/08/29 11:24:57;;;;;;;12.40;6.35;;;;;;;;;;4378803;32;20647;-85
2022/08/29 11:27:34;;;;;;;17.25;6.40;;;;;;;;;;4377311;32;20531;-85
2022/08/29 11:30:06;;;;;;;13.45;6.87;;;;;;;;;;4376966;32;20230;-85
2022/08/29 11:32:47;;;;;;;13.07;7.12;;;;;;;;;;4375971;32;21408;-84
2022/08/29 11:35:21;;;;;;;22.73;6.75;;;;;;;;;;4377032;32;20577;-84
2022/08/29 11:38:24;;;;;;;13.98;6.70;;;;;;;;;;4376635;32;20641;-85
2022/08/29 11:41:09;;;;;;;13.80;5.50;;;;;;;;;;4376126;32;20524;-85
2022/08/29 11:43:42;;;;;;;15.40;6.68;;;;;;;;;;4375732;32;20578;-84
2022/08/29 11:46:13;;;;;;;14.77;5.87;;;;;;;;;;4377898;32;20573;-84
2022/08/29 11:48:44;;;;;;;14.55;7.50;;;;;;;;;;4376918;32;20528;-85
2022/08/29 11:51:34;;;;;;;14.40;6.78;;;;;;;;;;4376313;32;20573;-85
2022/08/29 11:54:41;;;;;;;17.50;6.35;;;;;;;;;;4375877;32;20584;-85
2022/08/29 11:57:46;;;;;;;18.77;6.87;;;;;;;;;;4362122;32;20554;-84
2022/08/29 12:02:43;;;;;;;14.50;6.78;;;;;;;;;;4497167;31;20380;-83
2022/08/29 12:05:49;;;;;;;13.85;5.90;;;;;;;;;;4479738;32;20664;-83
2022/08/29 12:08:31;;;;;;;15.70;5.85;;;;;;;;;;4479983;32;20513;-83
2022/08/29 12:11:00;;;;;;;9.77;6.60;;;;;;;;;;4482067;32;20558;-82
2022/08/29 12:14:02;;;;;;;12.88;6.28;;;;;;;;;;4480226;32;20634;-83
2022/08/29 12:16:45;;;;;;;17.05;6.28;;;;;;;;;;4480094;32;20642;-83
2022/08/29 12:19:48;;;;;;;13.30;6.12;;;;;;;;;;4480533;32;20259;-85
2022/08/29 12:22:46;;;;;;;11.85;6.10;;;;;;;;;;4430689;32;101027;-82
2022/08/29 12:25:43;;;;;;;14.25;6.40;;;;;;;;;;4432865;32;20596;-82
2022/08/29 12:28:40;;;;;;;19.87;6.07;;;;;;;;;;4433759;32;20549;-83
2022/08/29 12:31:32;;;;;;;12.88;6.55;;;;;;;;;;4433025;32;20691;-82
2022/08/29 12:34:13;;;;;;;14.82;6.15;;;;;;;;;;4433059;32;20206;-83
2022/08/29 12:36:55;;;;;;;20.83;5.78;;;;;;;;;;4432390;32;20634;-83
2022/08/29 12:39:38;;;;;;;15.90;6.72;;;;;;;;;;4432327;32;20597;-83
2022/08/29 12:42:21;;;;;;;19.12;6.25;;;;;;;;;;4432895;32;20638;-83
2022/08/29 12:44:58;;;;;;;14.95;5.93;;;;;;;;;;4432194;32;20701;-82
2022/08/29 12:47:28;;;;;;;12.23;6.32;;;;;;;;;;4432960;32;20592;-83
2022/08/29 12:50:00;;;;;;;14.32;5.80;;;;;;;;;;4432917;32;20582;-83
2022/08/29 12:52:31;;;;;;;11.23;5.28;;;;;;;;;;4432215;32;20591;-83
2022/08/29 12:55:16;;;;;;;13.95;6.75;;;;;;;;;;4432030;32;20542;-83
2022/08/29 12:57:47;;;;;;;11.85;5.65;;;;;;;;;;4432156;32;20537;-83
2022/08/29 13:00:20;;;;;;;19.50;6.80;;;;;;;;;;4431586;32;20665;-83
2022/08/29 13:02:58;;;;;;;20.45;5.82;;;;;;;;;;4431605;32;20492;-82
2022/08/29 13:05:27;;;;;;;19.40;6.97;;;;;;;;;;4431878;32;20585;-83
2022/08/29 13:07:57;;;;;;;14.80;6.60;;;;;;;;;;4432057;32;20723;-84
2022/08/29 13:10:26;;;;;;;19.00;7.45;;;;;;;;;;4431877;32;20666;-84
2022/08/29 13:13:03;;;;;;;14.85;6.20;;;;;;;;;;4425414;32;20293;-83
2022/08/29 13:15:31;;;;;;;10.48;5.80;;;;;;;;;;4421427;32;20626;-83
2022/08/29 13:17:59;;;;;;;14.18;6.87;;;;;;;;;;4421662;32;20599;-83
2022/08/29 13:20:49;;;;;;;20.85;6.22;;;;;;;;;;4421198;32;20577;-83
2022/08/29 13:23:27;;;;;;;16.20;5.45;;;;;;;;;;4422643;32;20603;-83
2022/08/29 13:25:59;;;;;;;13.75;5.53;;;;;;;;;;4421623;32;20398;-83
2022/08/29 13:28:37;;;;;;;11.20;6.70;;;;;;;;;;4421677;32;20672;-83
2022/08/29 13:31:24;;;;;;;8.52;4.80;;;;;;;;;;4421234;32;20627;-83
2022/08/29 13:34:18;;;;;;;14.95;5.80;;;;;;;;;;4420949;32;20629;-84
2022/08/29 13:36:59;;;;;;;9.50;5.70;;;;;;;;;;4420665;32;20340;-83
2022/08/29 13:39:35;;;;;;;12.05;5.32;;;;;;;;;;4421201;32;20507;-83
2022/08/29 13:42:33;;;;;;;11.48;5.10;;;;;;;;;;4420959;32;20370;-82
2022/08/29 13:45:13;;;;;;;11.23;5.43;;;;;;;;;;4420940;32;20535;-84
2022/08/29 13:48:02;;;;;;;15.75;6.22;;;;;;;;;;4421200;32;20396;-83
2022/08/29 13:50:30;;;;;;;14.15;6.00;;;;;;;;;;4413595;32;20531;-83
2022/08/29 13:52:58;;;;;;;16.92;6.10;;;;;;;;;;4420755;32;20602;-83
2022/08/29 13:55:28;;;;;;;15.75;5.70;;;;;;;;;;4420519;32;20545;-84
2022/08/29 13:57:56;;;;;;;12.68;5.45;;;;;;;;;;4420603;32;20602;-83
2022/08/29 14:00:26;;;;;;;10.18;5.10;;;;;;;;;;4420747;32;20566;-83
2022/08/29 14:02:54;;;;;;;9.63;5.37;;;;;;;;;;4420052;32;20254;-83
2022/08/29 14:05:21;;;;;;;10.50;4.03;;;;;;;;;;4420304;32;20650;-82
2022/08/29 14:07:48;;;;;;;14.02;5.15;;;;;;;;;;4420711;32;20543;-86
2022/08/29 14:10:17;;;;;;;16.77;5.28;;;;;;;;;;4420967;32;20546;-86
2022/08/29 14:12:46;;;;;;;12.27;5.47;;;;;;;;;;4420594;32;20553;-83
2022/08/29 14:15:19;;;;;;;14.87;5.50;;;;;;;;;;4420480;32;20542;-83
2022/08/29 14:17:48;;;;;;;15.23;6.18;;;;;;;;;;4420411;32;20545;-83
2022/08/29 14:20:17;;;;;;;15.40;5.65;;;;;;;;;;4420123;32;20366;-85
2022/08/29 14:22:45;;;;;;;14.82;5.53;;;;;;;;;;4420075;32;20540;-84
2022/08/29 14:25:15;;;;;;;11.50;4.60;;;;;;;;;;4419625;32;20300;-83
2022/08/29 14:27:43;;;;;;;12.82;4.90;;;;;;;;;;4420416;32;20613;-83
2022/08/29 14:30:15;;;;;;;15.77;5.53;;;;;;;;;;4421312;32;20245;-82
2022/08/29 14:32:43;;;;;;;8.38;5.62;;;;;;;;;;4421489;32;20323;-82
2022/08/29 14:35:11;;;;;;;9.52;6.10;;;;;;;;;;4426489;32;20512;-83
2022/08/29 14:37:42;;;;;;;14.23;7.72;;;;;;;;;;4430453;32;20235;-83
2022/08/29 14:40:10;;;;;;;13.73;6.35;;;;;;;;;;4429930;32;20576;-84
2022/08/29 14:42:39;;;;;;;20.12;7.25;;;;;;;;;;4429440;32;20654;-81
2022/08/29 14:45:08;;;;;;;19.90;8.75;;;;;;;;;;4420818;32;20532;-85
2022/08/29 14:47:46;;;;;;;11.10;6.22;;;;;;;;;;4420619;32;20665;-79
2022/08/29 14:50:14;;;;;;;11.77;6.32;;;;;;;;;;4421100;32;20192;-84
2022/08/29 14:52:42;;;;;;;13.27;6.95;;;;;;;;;;4421541;32;20547;-86
2022/08/29 14:55:12;;;;;;;15.50;6.72;;;;;;;;;;4422191;32;20291;-84
2022/08/29 14:57:40;;;;;;;14.70;6.72;;;;;;;;;;4421961;32;20535;-83
2022/08/29 15:00:11;;;;;;;16.23;6.90;;;;;;;;;;4421090;32;20608;-85
2022/08/29 15:02:44;;;;;;;17.52;6.82;;;;;;;;;;4421218;32;20212;-85
2022/08/29 15:05:12;;;;;;;10.48;6.93;;;;;;;;;;4420728;32;20273;-85
2022/08/29 15:07:40;;;;;;;17.10;7.25;;;;;;;;;;4420090;32;20625;-83
2022/08/29 15:10:09;;;;;;;12.37;6.57;;;;;;;;;;4419831;32;20599;-85
2022/08/29 15:12:37;;;;;;;14.02;6.97;;;;;;;;;;4419595;32;20232;-86
2022/08/29 15:15:06;;;;;;;17.70;7.82;;;;;;;;;;4419345;32;20577;-83